sensor_id;sensor_type;location;lat;lon;timestamp;pressure;altitude;pressure_sealevel;temperature;humidity
29733;BME280;16643;43.158;25.302;2023-01-29T00:00:08;98243.66;;;1.19;100.00
29733;BME280;16643;43.158;25.302;2023-01-29T00:02:36;98238.50;;;1.18;100.00
29733;BME280;16643;43.158;25.302;2023-01-29T00:05:02;98255.53;;;1.13;100.00
29733;BME280;16643;43.158;25.302;2023-01-29T00:07:28;98254.69;;;1.17;100.00
29733;BME280;16643;43.158;25.302;2023-01-29T00:09:54;98247.84;;;1.14;100.00
29733;BME280;16643;43.158;25.302;2023-01-29T00:12:19;98257.31;;;1.20;100.00
29733;BME280;16643;43.158;25.302;2023-01-29T00:14:45;98252.16;;;1.17;100.00
29733;BME280;16643;43.158;25.302;2023-01-29T00:17:10;98253.81;;;1.15;100.00
29733;BME280;16643;43.158;25.302;2023-01-29T00:19:35;98247.84;;;1.14;100.00
29733;BME280;16643;43.158;25.302;2023-01-29T00:22:01;98256.38;;;1.13;100.00
29733;BME280;16643;43.158;25.302;2023-01-29T00:24:26;98261.50;;;1.15;100.00
29733;BME280;16643;43.158;25.302;2023-01-29T00:26:52;98259.84;;;1.20;100.00
29733;BME280;16643;43.158;25.302;2023-01-29T00:29:17;98254.75;;;1.24;100.00
29733;BME280;16643;43.158;25.302;2023-01-29T00:31:44;98265.03;;;1.27;100.00
29733;BME280;16643;43.158;25.302;2023-01-29T00:34:09;98268.47;;;1.29;100.00
29733;BME280;16643;43.158;25.302;2023-01-29T00:36:37;98263.38;;;1.32;100.00
29733;BME280;16643;43.158;25.302;2023-01-29T00:39:02;98264.16;;;1.25;100.00
29733;BME280;16643;43.158;25.302;2023-01-29T00:41:35;98262.53;;;1.32;100.00
29733;BME280;16643;43.158;25.302;2023-01-29T00:44:19;98253.97;;;1.30;100.00
29733;BME280;16643;43.158;25.302;2023-01-29T00:47:03;98259.13;;;1.36;100.00
29733;BME280;16643;43.158;25.302;2023-01-29T00:49:29;98249.78;;;1.38;100.00
29733;BME280;16643;43.158;25.302;2023-01-29T00:51:54;98261.72;;;1.37;100.00
29733;BME280;16643;43.158;25.302;2023-01-29T00:54:39;98258.34;;;1.43;100.00
29733;BME280;16643;43.158;25.302;2023-01-29T00:57:04;98254.09;;;1.43;100.00
29733;BME280;16643;43.158;25.302;2023-01-29T00:59:30;98260.91;;;1.43;100.00
29733;BME280;16643;43.158;25.302;2023-01-29T01:01:55;98261.72;;;1.39;100.00
29733;BME280;16643;43.158;25.302;2023-01-29T01:04:39;98256.63;;;1.40;100.00
29733;BME280;16643;43.158;25.302;2023-01-29T01:07:05;98264.31;;;1.42;100.00
29733;BME280;16643;43.158;25.302;2023-01-29T01:09:30;98263.44;;;1.40;100.00
29733;BME280;16643;43.158;25.302;2023-01-29T01:12:14;98270.25;;;1.39;100.00
29733;BME280;16643;43.158;25.302;2023-01-29T01:14:40;98263.38;;;1.32;100.00
29733;BME280;16643;43.158;25.302;2023-01-29T01:17:07;98260.75;;;1.26;100.00
29733;BME280;16643;43.158;25.302;2023-01-29T01:19:32;98262.50;;;1.30;100.00
29733;BME280;16643;43.158;25.302;2023-01-29T01:21:58;98265.13;;;1.38;100.00
29733;BME280;16643;43.158;25.302;2023-01-29T01:24:23;98260.88;;;1.35;100.00
29733;BME280;16643;43.158;25.302;2023-01-29T01:26:49;98267.66;;;1.32;100.00
29733;BME280;16643;43.158;25.302;2023-01-29T01:29:14;98267.66;;;1.32;100.00
29733;BME280;16643;43.158;25.302;2023-01-29T01:31:39;98265.09;;;1.32;100.00
29733;BME280;16643;43.158;25.302;2023-01-29T01:34:05;98267.69;;;1.35;100.00
29733;BME280;16643;43.158;25.302;2023-01-29T01:36:30;98269.38;;;1.36;100.00
29733;BME280;16643;43.158;25.302;2023-01-29T01:38:56;98269.38;;;1.33;100.00
29733;BME280;16643;43.158;25.302;2023-01-29T01:41:22;98274.44;;;1.30;100.00
29733;BME280;16643;43.158;25.302;2023-01-29T01:43:52;98276.13;;;1.26;100.00
29733;BME280;16643;43.158;25.302;2023-01-29T01:46:18;98269.16;;;1.10;100.00
29733;BME280;16643;43.158;25.302;2023-01-29T01:48:43;98270.03;;;1.15;100.00
29733;BME280;16643;43.158;25.302;2023-01-29T01:51:11;98270.06;;;1.18;100.00
29733;BME280;16643;43.158;25.302;2023-01-29T01:53:47;98280.38;;;1.23;100.00
29733;BME280;16643;43.158;25.302;2023-01-29T01:56:18;98271.91;;;1.31;100.00
29733;BME280;16643;43.158;25.302;2023-01-29T01:58:46;98273.69;;;1.41;100.00
29733;BME280;16643;43.158;25.302;2023-01-29T02:01:14;98259.94;;;1.30;100.00
29733;BME280;16643;43.158;25.302;2023-01-29T02:03:42;98257.41;;;1.32;100.00
29733;BME280;16643;43.158;25.302;2023-01-29T02:06:29;98265.84;;;1.22;100.00
29733;BME280;16643;43.158;25.302;2023-01-29T02:09:16;98260.81;;;1.31;100.00
29733;BME280;16643;43.158;25.302;2023-01-29T02:12:09;98269.28;;;1.25;100.00
29733;BME280;16643;43.158;25.302;2023-01-29T02:14:36;98265.84;;;1.25;100.00
29733;BME280;16643;43.158;25.302;2023-01-29T02:17:08;98265.03;;;1.27;100.00
29733;BME280;16643;43.158;25.302;2023-01-29T02:24:55;98267.66;;;1.32;100.00
29733;BME280;16643;43.158;25.302;2023-01-29T02:27:26;98270.97;;;1.25;100.00
29733;BME280;16643;43.158;25.302;2023-01-29T02:30:19;98269.19;;;1.16;100.00
29733;BME280;16643;43.158;25.302;2023-01-29T02:32:58;98280.34;;;1.24;100.00
29733;BME280;16643;43.158;25.302;2023-01-29T02:35:28;98267.50;;;1.18;100.00
29733;BME280;16643;43.158;25.302;2023-01-29T02:40:42;98274.38;;;1.21;100.00
29733;BME280;16643;43.158;25.302;2023-01-29T02:46:00;98278.66;;;1.23;100.00
29733;BME280;16643;43.158;25.302;2023-01-29T02:48:28;98275.22;;;1.24;100.00
29733;BME280;16643;43.158;25.302;2023-01-29T02:51:40;98275.25;;;1.23;100.00
29733;BME280;16643;43.158;25.302;2023-01-29T02:54:06;98278.66;;;1.23;100.00
29733;BME280;16643;43.158;25.302;2023-01-29T02:59:15;98285.56;;;1.32;100.00
29733;BME280;16643;43.158;25.302;2023-01-29T03:01:43;98275.31;;;1.32;100.00
29733;BME280;16643;43.158;25.302;2023-01-29T03:04:13;98280.47;;;1.35;100.00
29733;BME280;16643;43.158;25.302;2023-01-29T03:06:42;98285.63;;;1.39;100.00
29733;BME280;16643;43.158;25.302;2023-01-29T03:09:11;98288.16;;;1.38;100.00
29733;BME280;16643;43.158;25.302;2023-01-29T03:11:41;98280.47;;;1.38;100.00
29733;BME280;16643;43.158;25.302;2023-01-29T03:14:10;98286.47;;;1.35;100.00
29733;BME280;16643;43.158;25.302;2023-01-29T03:16:48;98284.69;;;1.30;100.00
29733;BME280;16643;43.158;25.302;2023-01-29T03:19:19;98288.97;;;1.31;100.00
29733;BME280;16643;43.158;25.302;2023-01-29T03:21:46;98290.66;;;1.29;100.00
29733;BME280;16643;43.158;25.302;2023-01-29T03:27:18;98295.84;;;1.35;100.00
29733;BME280;16643;43.158;25.302;2023-01-29T03:30:03;98295.81;;;1.32;100.00
29733;BME280;16643;43.158;25.302;2023-01-29T03:32:47;98300.94;;;1.32;100.00
29733;BME280;16643;43.158;25.302;2023-01-29T03:35:17;98312.03;;;1.32;100.00
29733;BME280;16643;43.158;25.302;2023-01-29T03:37:47;98300.09;;;1.36;100.00
29733;BME280;16643;43.158;25.302;2023-01-29T03:40:13;98304.44;;;1.43;100.00
29733;BME280;16643;43.158;25.302;2023-01-29T03:42:43;98295.91;;;1.44;100.00
29733;BME280;16643;43.158;25.302;2023-01-29T03:45:24;98301.84;;;1.40;100.00
29733;BME280;16643;43.158;25.302;2023-01-29T03:53:06;98298.34;;;1.30;100.00
29733;BME280;16643;43.158;25.302;2023-01-29T03:55:54;98301.81;;;1.37;100.00
29733;BME280;16643;43.158;25.302;2023-01-29T04:03:54;98301.81;;;1.34;100.00
29733;BME280;16643;43.158;25.302;2023-01-29T04:06:23;98298.38;;;1.32;100.00
29733;BME280;16643;43.158;25.302;2023-01-29T04:08:54;98302.66;;;1.37;100.00
29733;BME280;16643;43.158;25.302;2023-01-29T04:11:21;98304.38;;;1.35;100.00
29733;BME280;16643;43.158;25.302;2023-01-29T04:13:47;98303.50;;;1.33;100.00
29733;BME280;16643;43.158;25.302;2023-01-29T04:16:15;98310.34;;;1.37;100.00
29733;BME280;16643;43.158;25.302;2023-01-29T04:18:43;98302.66;;;1.36;100.00
29733;BME280;16643;43.158;25.302;2023-01-29T04:21:09;98317.25;;;1.43;100.00
29733;BME280;16643;43.158;25.302;2023-01-29T04:23:34;98309.59;;;1.46;100.00
29733;BME280;16643;43.158;25.302;2023-01-29T04:26:13;98318.81;;;1.30;100.00
29733;BME280;16643;43.158;25.302;2023-01-29T04:31:11;98318.00;;;1.36;100.00
29733;BME280;16643;43.158;25.302;2023-01-29T04:33:46;98323.09;;;1.31;100.00
29733;BME280;16643;43.158;25.302;2023-01-29T04:44:03;98346.09;;;1.27;100.00
29733;BME280;16643;43.158;25.302;2023-01-29T04:51:54;98336.69;;;1.23;100.00
29733;BME280;16643;43.158;25.302;2023-01-29T04:59:59;98341.66;;;1.11;100.00
29733;BME280;16643;43.158;25.302;2023-01-29T05:02:26;98337.50;;;1.20;100.00
29733;BME280;16643;43.158;25.302;2023-01-29T05:04:53;98354.50;;;1.17;100.00
29733;BME280;16643;43.158;25.302;2023-01-29T05:07:19;98346.84;;;1.17;100.00
29733;BME280;16643;43.158;25.302;2023-01-29T05:09:45;98346.06;;;1.24;100.00
29733;BME280;16643;43.158;25.302;2023-01-29T05:12:12;98358.88;;;1.24;100.00
29733;BME280;16643;43.158;25.302;2023-01-29T05:14:38;98355.38;;;1.17;100.00
29733;BME280;16643;43.158;25.302;2023-01-29T05:17:08;98352.03;;;1.23;100.00
29733;BME280;16643;43.158;25.302;2023-01-29T05:19:34;98346.88;;;1.21;100.00
29733;BME280;16643;43.158;25.302;2023-01-29T05:22:00;98354.56;;;1.20;100.00
29733;BME280;16643;43.158;25.302;2023-01-29T05:24:29;98350.28;;;1.19;100.00
29733;BME280;16643;43.158;25.302;2023-01-29T05:26:55;98354.56;;;1.21;100.00
29733;BME280;16643;43.158;25.302;2023-01-29T05:29:39;98353.69;;;1.19;100.00
29733;BME280;16643;43.158;25.302;2023-01-29T05:32:05;98351.19;;;1.25;100.00
29733;BME280;16643;43.158;25.302;2023-01-29T05:34:31;98357.97;;;1.20;100.00
29733;BME280;16643;43.158;25.302;2023-01-29T05:36:56;98355.44;;;1.22;100.00
29733;BME280;16643;43.158;25.302;2023-01-29T05:39:22;98365.66;;;1.20;100.00
29733;BME280;16643;43.158;25.302;2023-01-29T05:41:47;98371.66;;;1.24;100.00
29733;BME280;16643;43.158;25.302;2023-01-29T05:44:13;98375.88;;;1.20;100.00
29733;BME280;16643;43.158;25.302;2023-01-29T05:46:38;98375.78;;;1.14;100.00
29733;BME280;16643;43.158;25.302;2023-01-29T05:49:04;98384.47;;;1.24;100.00
29733;BME280;16643;43.158;25.302;2023-01-29T05:51:29;98390.47;;;1.29;100.00
29733;BME280;16643;43.158;25.302;2023-01-29T05:53:55;98391.28;;;1.26;100.00
29733;BME280;16643;43.158;25.302;2023-01-29T05:56:20;98390.56;;;1.35;100.00
29733;BME280;16643;43.158;25.302;2023-01-29T05:58:46;98398.22;;;1.33;100.00
29733;BME280;16643;43.158;25.302;2023-01-29T06:01:12;98399.94;;;1.36;100.00
29733;BME280;16643;43.158;25.302;2023-01-29T06:03:38;98403.38;;;1.39;100.00
29733;BME280;16643;43.158;25.302;2023-01-29T06:06:04;98396.56;;;1.40;100.00
29733;BME280;16643;43.158;25.302;2023-01-29T06:08:29;98402.53;;;1.39;100.00
29733;BME280;16643;43.158;25.302;2023-01-29T06:10:55;98399.09;;;1.38;100.00
29733;BME280;16643;43.158;25.302;2023-01-29T06:13:20;98409.44;;;1.48;100.00
29733;BME280;16643;43.158;25.302;2023-01-29T06:15:46;98417.06;;;1.41;100.00
29733;BME280;16643;43.158;25.302;2023-01-29T06:18:11;98415.44;;;1.47;100.00
29733;BME280;16643;43.158;25.302;2023-01-29T06:20:36;98421.38;;;1.44;100.00
29733;BME280;16643;43.158;25.302;2023-01-29T06:23:02;98427.22;;;1.34;100.00
29733;BME280;16643;43.158;25.302;2023-01-29T06:25:27;98438.19;;;1.22;100.00
29733;BME280;16643;43.158;25.302;2023-01-29T06:27:53;98432.22;;;1.23;100.00
29733;BME280;16643;43.158;25.302;2023-01-29T06:30:18;98438.19;;;1.22;100.00
29733;BME280;16643;43.158;25.302;2023-01-29T06:32:44;98430.53;;;1.24;100.00
29733;BME280;16643;43.158;25.302;2023-01-29T06:35:09;98434.06;;;1.33;100.00
29733;BME280;16643;43.158;25.302;2023-01-29T06:37:35;98435.72;;;1.30;100.00
29733;BME280;16643;43.158;25.302;2023-01-29T06:40:04;98438.28;;;1.30;100.00
29733;BME280;16643;43.158;25.302;2023-01-29T06:42:30;98440.84;;;1.30;100.00
29733;BME280;16643;43.158;25.302;2023-01-29T06:44:55;98444.31;;;1.38;100.00
29733;BME280;16643;43.158;25.302;2023-01-29T06:47:21;98454.56;;;1.35;100.00
29733;BME280;16643;43.158;25.302;2023-01-29T06:49:47;98456.31;;;1.40;100.00
29733;BME280;16643;43.158;25.302;2023-01-29T06:52:12;98461.38;;;1.34;100.00
29733;BME280;16643;43.158;25.302;2023-01-29T06:54:38;98464.63;;;1.24;100.00
29733;BME280;16643;43.158;25.302;2023-01-29T06:57:03;98457.03;;;1.29;100.00
29733;BME280;16643;43.158;25.302;2023-01-29T06:59:29;98463.91;;;1.33;100.00
29733;BME280;16643;43.158;25.302;2023-01-29T07:01:54;98463.09;;;1.35;100.00
29733;BME280;16643;43.158;25.302;2023-01-29T07:04:20;98468.25;;;1.40;100.00
29733;BME280;16643;43.158;25.302;2023-01-29T07:06:45;98463.13;;;1.38;100.00
29733;BME280;16643;43.158;25.302;2023-01-29T07:09:11;98466.53;;;1.39;100.00
29733;BME280;16643;43.158;25.302;2023-01-29T07:11:38;98475.16;;;1.45;100.00
29733;BME280;16643;43.158;25.302;2023-01-29T07:14:03;98471.66;;;1.39;100.00
29733;BME280;16643;43.158;25.302;2023-01-29T07:16:29;98478.41;;;1.32;100.00
29733;BME280;16643;43.158;25.302;2023-01-29T07:18:55;98476.66;;;1.28;100.00
29733;BME280;16643;43.158;25.302;2023-01-29T07:21:20;98472.38;;;1.29;100.00
29733;BME280;16643;43.158;25.302;2023-01-29T07:23:46;98476.81;;;1.42;100.00
29733;BME280;16643;43.158;25.302;2023-01-29T07:26:11;98475.06;;;1.39;100.00
29733;BME280;16643;43.158;25.302;2023-01-29T07:28:37;98482.00;;;1.48;100.00
29733;BME280;16643;43.158;25.302;2023-01-29T07:31:03;98487.19;;;1.54;100.00
29733;BME280;16643;43.158;25.302;2023-01-29T07:33:29;98484.69;;;1.60;100.00
29733;BME280;16643;43.158;25.302;2023-01-29T07:35:54;98494.09;;;1.60;100.00
29733;BME280;16643;43.158;25.302;2023-01-29T07:38:20;98506.91;;;1.61;100.00
29733;BME280;16643;43.158;25.302;2023-01-29T07:40:45;98491.63;;;1.70;100.00
29733;BME280;16643;43.158;25.302;2023-01-29T07:43:11;98495.06;;;1.68;100.00
29733;BME280;16643;43.158;25.302;2023-01-29T07:45:37;98490.84;;;1.74;100.00
29733;BME280;16643;43.158;25.302;2023-01-29T07:48:04;98490.06;;;1.80;100.00
29733;BME280;16643;43.158;25.302;2023-01-29T07:50:30;98495.19;;;1.81;100.00
29733;BME280;16643;43.158;25.302;2023-01-29T07:52:56;98499.53;;;1.87;100.00
29733;BME280;16643;43.158;25.302;2023-01-29T07:55:21;98494.47;;;1.96;100.00
29733;BME280;16643;43.158;25.302;2023-01-29T07:57:53;98503.88;;;1.96;100.00
29733;BME280;16643;43.158;25.302;2023-01-29T08:00:18;98495.47;;;2.09;100.00
29733;BME280;16643;43.158;25.302;2023-01-29T08:02:44;98500.66;;;2.13;100.00
29733;BME280;16643;43.158;25.302;2023-01-29T08:05:09;98505.84;;;2.21;100.00
29733;BME280;16643;43.158;25.302;2023-01-29T08:07:35;98506.69;;;2.22;100.00
29733;BME280;16643;43.158;25.302;2023-01-29T08:10:00;98507.59;;;2.28;100.00
29733;BME280;16643;43.158;25.302;2023-01-29T08:12:26;98514.53;;;2.35;100.00
29733;BME280;16643;43.158;25.302;2023-01-29T08:14:51;98505.06;;;2.30;100.00
29733;BME280;16643;43.158;25.302;2023-01-29T08:17:17;98513.47;;;2.16;100.00
29733;BME280;16643;43.158;25.302;2023-01-29T08:19:42;98512.69;;;2.22;100.00
29733;BME280;16643;43.158;25.302;2023-01-29T08:22:08;98519.50;;;2.22;100.00
29733;BME280;16643;43.158;25.302;2023-01-29T08:24:33;98522.88;;;2.17;100.00
29733;BME280;16643;43.158;25.302;2023-01-29T08:26:59;98518.56;;;2.12;100.00
29733;BME280;16643;43.158;25.302;2023-01-29T08:29:24;98519.47;;;2.17;100.00
29733;BME280;16643;43.158;25.302;2023-01-29T08:31:49;98527.16;;;2.17;100.00
29733;BME280;16643;43.158;25.302;2023-01-29T08:34:15;98522.88;;;2.17;100.00
29733;BME280;16643;43.158;25.302;2023-01-29T08:36:40;98527.13;;;2.15;100.00
29733;BME280;16643;43.158;25.302;2023-01-29T08:39:06;98532.28;;;2.17;100.00
29733;BME280;16643;43.158;25.302;2023-01-29T08:41:31;98528.03;;;2.19;100.00
29733;BME280;16643;43.158;25.302;2023-01-29T08:43:57;98535.69;;;2.13;100.00
29733;BME280;16643;43.158;25.302;2023-01-29T08:46:24;98538.22;;;2.14;100.00
29733;BME280;16643;43.158;25.302;2023-01-29T08:48:50;98528.94;;;2.23;100.00
29733;BME280;16643;43.158;25.302;2023-01-29T08:51:15;98531.50;;;2.24;100.00
29733;BME280;16643;43.158;25.302;2023-01-29T08:53:40;98533.97;;;2.16;100.00
29733;BME280;16643;43.158;25.302;2023-01-29T08:56:06;98533.19;;;2.22;100.00
29733;BME280;16643;43.158;25.302;2023-01-29T08:58:31;98537.47;;;2.22;100.00
29733;BME280;16643;43.158;25.302;2023-01-29T09:01:04;98534.94;;;2.26;100.00
29733;BME280;16643;43.158;25.302;2023-01-29T09:03:29;98534.09;;;2.27;100.00
29733;BME280;16643;43.158;25.302;2023-01-29T09:05:55;98533.31;;;2.34;100.00
29733;BME280;16643;43.158;25.302;2023-01-29T09:08:20;98532.50;;;2.37;100.00
29733;BME280;16643;43.158;25.302;2023-01-29T09:10:45;98534.06;;;2.23;100.00
29733;BME280;16643;43.158;25.302;2023-01-29T09:13:11;98527.28;;;2.29;100.00
29733;BME280;16643;43.158;25.302;2023-01-29T09:15:36;98527.31;;;2.34;100.00
29733;BME280;16643;43.158;25.302;2023-01-29T09:18:02;98527.31;;;2.32;100.00
29733;BME280;16643;43.158;25.302;2023-01-29T09:20:28;98529.91;;;2.35;100.00
29733;BME280;16643;43.158;25.302;2023-01-29T09:22:53;98531.50;;;2.24;100.00
29733;BME280;16643;43.158;25.302;2023-01-29T09:25:20;98524.78;;;2.37;100.00
29733;BME280;16643;43.158;25.302;2023-01-29T09:27:46;98518.81;;;2.36;100.00
29733;BME280;16643;43.158;25.302;2023-01-29T09:30:12;98525.59;;;2.33;100.00
29733;BME280;16643;43.158;25.302;2023-01-29T09:32:37;98524.84;;;2.43;100.00
29733;BME280;16643;43.158;25.302;2023-01-29T09:35:03;98529.06;;;2.36;100.00
29733;BME280;16643;43.158;25.302;2023-01-29T09:37:28;98521.34;;;2.35;100.00
29733;BME280;16643;43.158;25.302;2023-01-29T09:39:54;98517.09;;;2.40;100.00
29733;BME280;16643;43.158;25.302;2023-01-29T09:42:23;98511.13;;;2.41;100.00
29733;BME280;16643;43.158;25.302;2023-01-29T09:47:29;98516.38;;;2.54;100.00
29733;BME280;16643;43.158;25.302;2023-01-29T09:49:57;98513.94;;;2.70;100.00
29733;BME280;16643;43.158;25.302;2023-01-29T09:52:29;98518.25;;;2.74;100.00
29733;BME280;16643;43.158;25.302;2023-01-29T09:55:21;98519.13;;;2.77;100.00
29733;BME280;16643;43.158;25.302;2023-01-29T09:57:47;98520.88;;;2.81;100.00
29733;BME280;16643;43.158;25.302;2023-01-29T10:05:20;98515.63;;;2.66;100.00
29733;BME280;16643;43.158;25.302;2023-01-29T10:16:14;98512.94;;;2.52;100.00
29733;BME280;16643;43.158;25.302;2023-01-29T10:24:01;98493.91;;;2.23;100.00
29733;BME280;16643;43.158;25.302;2023-01-29T10:26:33;98494.75;;;2.22;100.00
29733;BME280;16643;43.158;25.302;2023-01-29T10:29:02;98489.66;;;2.25;100.00
29733;BME280;16643;43.158;25.302;2023-01-29T10:31:31;98494.72;;;2.21;100.00
29733;BME280;16643;43.158;25.302;2023-01-29T10:34:08;98492.28;;;2.33;100.00
29733;BME280;16643;43.158;25.302;2023-01-29T10:36:37;98485.34;;;2.21;100.00
29733;BME280;16643;43.158;25.302;2023-01-29T10:39:10;98481.09;;;2.25;100.00
29733;BME280;16643;43.158;25.302;2023-01-29T10:49:26;98472.47;;;2.16;100.00
29733;BME280;16643;43.158;25.302;2023-01-29T10:57:21;98467.44;;;2.26;100.00
29733;BME280;16643;43.158;25.302;2023-01-29T11:02:19;98465.72;;;2.25;100.00
29733;BME280;16643;43.158;25.302;2023-01-29T11:04:47;98460.59;;;2.29;100.00
29733;BME280;16643;43.158;25.302;2023-01-29T11:07:13;98461.50;;;2.33;100.00
29733;BME280;16643;43.158;25.302;2023-01-29T11:12:47;98463.16;;;2.29;100.00
29733;BME280;16643;43.158;25.302;2023-01-29T11:17:29;98455.53;;;2.35;100.00
29733;BME280;16643;43.158;25.302;2023-01-29T11:19:54;98454.63;;;2.30;100.00
29733;BME280;16643;43.158;25.302;2023-01-29T11:22:20;98459.84;;;2.41;100.00
29733;BME280;16643;43.158;25.302;2023-01-29T11:27:31;98435.03;;;2.35;100.00
29733;BME280;16643;43.158;25.302;2023-01-29T11:29:57;98448.72;;;2.40;100.00
29733;BME280;16643;43.158;25.302;2023-01-29T11:32:24;98440.22;;;2.43;100.00
29733;BME280;16643;43.158;25.302;2023-01-29T11:37:39;98449.56;;;2.39;100.00
29733;BME280;16643;43.158;25.302;2023-01-29T11:42:43;98430.84;;;2.51;100.00
29733;BME280;16643;43.158;25.302;2023-01-29T11:45:28;98430.81;;;2.43;100.00
29733;BME280;16643;43.158;25.302;2023-01-29T11:47:56;98422.28;;;2.50;100.00
29733;BME280;16643;43.158;25.302;2023-01-29T11:50:23;98428.28;;;2.49;100.00
29733;BME280;16643;43.158;25.302;2023-01-29T11:52:50;98421.47;;;2.53;100.00
29733;BME280;16643;43.158;25.302;2023-01-29T11:55:22;98416.25;;;2.42;100.00
29733;BME280;16643;43.158;25.302;2023-01-29T11:57:50;98416.22;;;2.39;100.00
29733;BME280;16643;43.158;25.302;2023-01-29T12:02:44;98417.09;;;2.38;100.00
29733;BME280;16643;43.158;25.302;2023-01-29T12:05:17;98413.56;;;2.27;100.00
29733;BME280;16643;43.158;25.302;2023-01-29T12:07:43;98405.97;;;2.36;100.00
29733;BME280;16643;43.158;25.302;2023-01-29T12:15:44;98412.09;;;2.57;100.00
29733;BME280;16643;43.158;25.302;2023-01-29T12:21:16;98416.38;;;2.62;100.00
29733;BME280;16643;43.158;25.302;2023-01-29T12:26:13;98418.16;;;2.72;100.00
29733;BME280;16643;43.158;25.302;2023-01-29T12:36:33;98420.66;;;2.57;100.00
29733;BME280;16643;43.158;25.302;2023-01-29T12:39:01;98424.06;;;2.56;100.00
29733;BME280;16643;43.158;25.302;2023-01-29T12:43:55;98428.19;;;2.39;100.00
29733;BME280;16643;43.158;25.302;2023-01-29T12:46:25;98430.78;;;2.40;100.00
29733;BME280;16643;43.158;25.302;2023-01-29T12:48:52;98432.53;;;2.44;100.00
29733;BME280;16643;43.158;25.302;2023-01-29T12:51:20;98434.19;;;2.39;100.00
29733;BME280;16643;43.158;25.302;2023-01-29T12:53:49;98435.06;;;2.43;100.00
29733;BME280;16643;43.158;25.302;2023-01-29T12:56:37;98441.91;;;2.42;100.00
29733;BME280;16643;43.158;25.302;2023-01-29T12:59:04;98441.94;;;2.45;100.00
29733;BME280;16643;43.158;25.302;2023-01-29T13:01:39;98448.69;;;2.37;100.00
29733;BME280;16643;43.158;25.302;2023-01-29T13:04:11;98446.91;;;2.27;100.00
29733;BME280;16643;43.158;25.302;2023-01-29T13:06:40;98443.47;;;2.27;100.00
29733;BME280;16643;43.158;25.302;2023-01-29T13:09:14;98445.22;;;2.29;100.00
29733;BME280;16643;43.158;25.302;2023-01-29T13:11:46;98447.75;;;2.23;100.00
29733;BME280;16643;43.158;25.302;2023-01-29T13:14:18;98449.38;;;2.15;100.00
29733;BME280;16643;43.158;25.302;2023-01-29T13:16:46;98446.78;;;2.09;100.00
29733;BME280;16643;43.158;25.302;2023-01-29T13:21:48;98445.16;;;2.20;100.00
29733;BME280;16643;43.158;25.302;2023-01-29T13:24:15;98436.56;;;2.15;100.00
29733;BME280;16643;43.158;25.302;2023-01-29T13:26:46;98433.91;;;2.04;100.00
29733;BME280;16643;43.158;25.302;2023-01-29T13:29:19;98438.25;;;2.11;100.00
29733;BME280;16643;43.158;25.302;2023-01-29T13:31:46;98427.94;;;2.07;100.00
29733;BME280;16643;43.158;25.302;2023-01-29T13:34:16;98428.78;;;2.03;100.00
29733;BME280;16643;43.158;25.302;2023-01-29T13:36:54;98426.13;;;1.94;100.00
29733;BME280;16643;43.158;25.302;2023-01-29T13:39:22;98437.25;;;1.96;100.00
29733;BME280;16643;43.158;25.302;2023-01-29T13:41:49;98444.06;;;1.95;100.00
29733;BME280;16643;43.158;25.302;2023-01-29T13:44:22;98441.50;;;1.94;100.00
29733;BME280;16643;43.158;25.302;2023-01-29T13:46:50;98443.19;;;1.90;100.00
29733;BME280;16643;43.158;25.302;2023-01-29T13:49:24;98441.38;;;1.78;100.00
29733;BME280;16643;43.158;25.302;2023-01-29T13:51:51;98443.13;;;1.86;100.00
29733;BME280;16643;43.158;25.302;2023-01-29T13:54:19;98444.81;;;1.80;100.00
29733;BME280;16643;43.158;25.302;2023-01-29T14:02:00;98461.19;;;1.98;100.00
29733;BME280;16643;43.158;25.302;2023-01-29T14:04:27;98458.59;;;1.96;100.00
29733;BME280;16643;43.158;25.302;2023-01-29T14:06:58;98461.16;;;1.92;100.00
29733;BME280;16643;43.158;25.302;2023-01-29T14:12:02;98467.13;;;1.95;100.00
29733;BME280;16643;43.158;25.302;2023-01-29T14:15:29;98450.13;;;2.02;100.00
29733;BME280;16643;43.158;25.302;2023-01-29T14:17:22;98461.19;;;1.98;100.00
29733;BME280;16643;43.158;25.302;2023-01-29T14:19:50;98457.88;;;2.08;100.00
29733;BME280;16643;43.158;25.302;2023-01-29T14:22:20;98461.25;;;2.02;100.00
29733;BME280;16643;43.158;25.302;2023-01-29T14:24:47;98456.91;;;1.97;100.00
29733;BME280;16643;43.158;25.302;2023-01-29T14:27:18;98453.56;;;2.02;100.00
29733;BME280;16643;43.158;25.302;2023-01-29T14:29:44;98461.25;;;2.02;100.00
29733;BME280;16643;43.158;25.302;2023-01-29T14:32:13;98454.31;;;1.95;100.00
29733;BME280;16643;43.158;25.302;2023-01-29T14:34:43;98454.38;;;2.00;100.00
29733;BME280;16643;43.158;25.302;2023-01-29T14:39:42;98457.84;;;2.06;100.00
29733;BME280;16643;43.158;25.302;2023-01-29T14:42:28;98459.59;;;2.09;100.00
29733;BME280;16643;43.158;25.302;2023-01-29T14:44:58;98460.41;;;2.06;100.00
29733;BME280;16643;43.158;25.302;2023-01-29T14:49:50;98467.31;;;2.12;100.00
29733;BME280;16643;43.158;25.302;2023-01-29T14:52:17;98464.69;;;2.07;100.00
29733;BME280;16643;43.158;25.302;2023-01-29T14:54:45;98476.75;;;2.17;100.00
29733;BME280;16643;43.158;25.302;2023-01-29T14:57:11;98467.41;;;2.24;100.00
29733;BME280;16643;43.158;25.302;2023-01-29T15:00:24;98471.59;;;2.13;100.00
29733;BME280;16643;43.158;25.302;2023-01-29T15:02:39;98468.97;;;2.07;100.00
29733;BME280;16643;43.158;25.302;2023-01-29T15:05:07;98471.50;;;2.05;100.00
29733;BME280;16643;43.158;25.302;2023-01-29T15:07:40;98466.41;;;2.07;100.00
29733;BME280;16643;43.158;25.302;2023-01-29T15:10:53;98463.88;;;2.10;100.00
29733;BME280;16643;43.158;25.302;2023-01-29T15:13:02;98468.91;;;2.04;100.00
29733;BME280;16643;43.158;25.302;2023-01-29T15:18:21;98472.34;;;2.04;100.00